createdAt,value
2019-01-24T00:00:17.440Z,87.94
2019-01-24T00:02:50.172Z,87.62
2019-01-24T00:05:23.049Z,87.56
2019-01-24T00:07:56.619Z,87.29
2019-01-24T00:10:29.357Z,87.36
2019-01-24T00:13:02.130Z,87.38
2019-01-24T00:15:34.879Z,87.58
2019-01-24T00:18:07.698Z,87.65
2019-01-24T00:20:40.417Z,87.32
2019-01-24T00:23:13.092Z,87.18
2019-01-24T00:25:45.986Z,87.12
2019-01-24T00:28:18.798Z,87.18
2019-01-24T00:30:51.535Z,87.16
2019-01-24T00:33:24.254Z,86.98
2019-01-24T00:35:57.097Z,87.18
2019-01-24T00:38:29.852Z,87.08
2019-01-24T00:41:02.674Z,87.07
2019-01-24T00:43:35.542Z,86.85
2019-01-24T00:46:08.328Z,86.84
2019-01-24T00:48:41.017Z,86.50
2019-01-24T00:51:13.905Z,86.94
2019-01-24T00:53:46.656Z,87.06
2019-01-24T00:56:19.325Z,87.14
2019-01-24T00:58:52.070Z,86.96
2019-01-24T01:01:24.779Z,86.75
2019-01-24T01:03:57.416Z,86.67
2019-01-24T01:06:30.244Z,86.98
2019-01-24T01:09:02.227Z,87.39
2019-01-24T01:11:35.042Z,87.48
2019-01-24T01:14:07.920Z,87.30
2019-01-24T01:16:40.631Z,87.15
2019-01-24T01:19:13.332Z,87.53
2019-01-24T01:21:46.142Z,87.56
2019-01-24T01:24:19.021Z,87.38
2019-01-24T01:26:51.769Z,87.11
2019-01-24T01:29:24.575Z,87.05
2019-01-24T01:31:57.392Z,87.24
2019-01-24T01:34:36.140Z,87.27
2019-01-24T01:37:04.683Z,87.32
2019-01-24T01:39:37.419Z,87.33
2019-01-24T01:42:10.178Z,87.30
2019-01-24T01:44:42.864Z,87.03
2019-01-24T01:47:15.571Z,87.37
2019-01-24T01:49:48.346Z,87.91
2019-01-24T01:52:21.359Z,87.66
2019-01-24T01:54:54.085Z,88.08
2019-01-24T01:57:26.873Z,88.01
2019-01-24T01:59:59.642Z,87.81
2019-01-24T02:02:32.476Z,87.68
2019-01-24T02:05:07.437Z,88.10
2019-01-24T02:07:40.327Z,88.26
2019-01-24T02:10:17.036Z,88.30
2019-01-24T02:12:50.078Z,88.63
2019-01-24T02:15:22.767Z,88.95
2019-01-24T02:17:55.488Z,88.84
2019-01-24T02:20:28.218Z,89.06
2019-01-24T02:23:01.048Z,89.00
2019-01-24T02:25:33.819Z,89.20
2019-01-24T02:28:06.761Z,88.64
2019-01-24T02:30:39.539Z,88.40
2019-01-24T02:33:13.427Z,88.49
2019-01-24T02:35:46.257Z,87.73
2019-01-24T02:38:19.149Z,87.57
2019-01-24T02:40:51.872Z,87.42
2019-01-24T02:43:24.616Z,87.51
2019-01-24T02:45:57.313Z,87.63
2019-01-24T02:48:29.939Z,87.13
2019-01-24T02:51:02.689Z,87.15
2019-01-24T02:53:35.323Z,87.17
2019-01-24T02:56:08.085Z,86.71
2019-01-24T02:58:40.821Z,86.68
2019-01-24T03:01:13.570Z,86.60
2019-01-24T03:03:46.385Z,86.75
2019-01-24T03:06:19.049Z,86.75
2019-01-24T03:08:51.803Z,87.25
2019-01-24T03:11:24.465Z,86.92
2019-01-24T03:13:57.210Z,86.51
2019-01-24T03:16:29.957Z,86.35
2019-01-24T03:19:02.799Z,86.17
2019-01-24T03:21:35.633Z,86.14
2019-01-24T03:24:08.516Z,86.40
2019-01-24T03:26:41.269Z,86.11
2019-01-24T03:29:13.996Z,86.15
2019-01-24T03:31:46.888Z,85.88
2019-01-24T03:34:19.630Z,86.04
2019-01-24T03:36:53.218Z,86.33
2019-01-24T03:39:26.383Z,86.28
2019-01-24T03:41:59.117Z,86.18
2019-01-24T03:44:31.788Z,86.10
2019-01-24T03:47:04.574Z,86.25
2019-01-24T03:49:37.355Z,86.03
2019-01-24T03:52:10.078Z,86.06
2019-01-24T03:54:42.754Z,85.80
2019-01-24T03:57:15.432Z,85.80
2019-01-24T03:59:48.157Z,85.38
2019-01-24T04:02:20.812Z,85.13
2019-01-24T04:04:53.425Z,84.16
2019-01-24T04:07:26.047Z,83.62
2019-01-24T04:09:58.703Z,83.67
2019-01-24T04:12:31.021Z,84.03
2019-01-24T04:15:03.742Z,84.59
2019-01-24T04:17:36.566Z,84.31
2019-01-24T04:20:10.788Z,84.21
2019-01-24T04:22:43.353Z,83.28
2019-01-24T04:25:16.447Z,83.21
2019-01-24T04:27:49.085Z,83.74
2019-01-24T04:30:24.274Z,83.40
2019-01-24T04:32:56.939Z,82.96
2019-01-24T04:35:29.569Z,82.58
2019-01-24T04:38:02.281Z,82.61
2019-01-24T04:40:35.024Z,82.46
2019-01-24T04:43:07.790Z,82.63
2019-01-24T04:45:40.442Z,83.39
2019-01-24T04:48:13.097Z,83.80
2019-01-24T04:50:45.776Z,82.60
2019-01-24T04:53:18.449Z,82.32
2019-01-24T04:55:50.990Z,82.27
2019-01-24T04:58:23.641Z,81.65
2019-01-24T05:00:56.299Z,81.48
2019-01-24T05:03:28.986Z,81.90
2019-01-24T05:06:01.755Z,81.85
2019-01-24T05:08:34.352Z,81.21
2019-01-24T05:11:06.984Z,81.74
2019-01-24T05:13:39.742Z,81.98
2019-01-24T05:16:12.413Z,81.44
2019-01-24T05:18:45.075Z,82.03
2019-01-24T05:21:17.983Z,82.61
2019-01-24T05:23:50.656Z,82.92
2019-01-24T05:26:23.272Z,82.10
2019-01-24T05:28:55.963Z,81.24
2019-01-24T05:31:28.622Z,81.51
2019-01-24T05:34:01.206Z,81.62
2019-01-24T05:36:33.861Z,81.09
2019-01-24T05:39:09.487Z,81.46
2019-01-24T05:41:42.226Z,80.55
2019-01-24T05:44:14.921Z,80.07
2019-01-24T05:46:47.490Z,79.96
2019-01-24T05:49:20.096Z,80.37
2019-01-24T05:51:52.861Z,81.06
2019-01-24T05:54:25.513Z,80.89
2019-01-24T05:56:58.104Z,80.88
2019-01-24T05:59:30.878Z,80.05
2019-01-24T06:02:03.796Z,80.18
2019-01-24T06:04:36.424Z,80.44
2019-01-24T06:07:08.979Z,80.77
2019-01-24T06:09:41.695Z,81.64
2019-01-24T06:12:14.352Z,82.08
2019-01-24T06:14:47.164Z,82.04
2019-01-24T06:17:19.892Z,81.81
2019-01-24T06:19:52.632Z,82.03
2019-01-24T06:22:25.590Z,81.95
2019-01-24T06:24:58.201Z,82.03
2019-01-24T06:27:30.927Z,81.87
2019-01-24T06:30:03.660Z,81.68
2019-01-24T06:32:36.288Z,81.81
2019-01-24T06:35:09.413Z,81.56
2019-01-24T06:37:42.358Z,82.04
2019-01-24T06:40:16.986Z,82.42
2019-01-24T06:42:49.652Z,81.66
2019-01-24T06:45:23.774Z,81.84
2019-01-24T06:47:56.472Z,81.48
2019-01-24T06:50:29.065Z,81.57
2019-01-24T06:53:01.727Z,81.42
2019-01-24T06:55:34.441Z,81.60
2019-01-24T06:58:07.112Z,81.20
2019-01-24T07:00:39.875Z,80.66
2019-01-24T07:03:13.526Z,81.28
2019-01-24T07:05:46.193Z,81.16
2019-01-24T07:08:19.048Z,81.16
2019-01-24T07:10:51.763Z,80.90
2019-01-24T07:13:25.165Z,81.01
2019-01-24T07:15:57.893Z,81.01
2019-01-24T07:18:30.703Z,80.75
2019-01-24T07:21:03.496Z,80.95
2019-01-24T07:23:36.091Z,80.78
2019-01-24T07:26:08.781Z,80.42
2019-01-24T07:28:41.434Z,80.12
2019-01-24T07:31:14.210Z,80.12
2019-01-24T07:33:46.795Z,80.31
2019-01-24T07:36:19.351Z,80.90
2019-01-24T07:38:52.225Z,80.58
2019-01-24T07:41:24.211Z,80.39
2019-01-24T07:43:56.966Z,79.89
2019-01-24T07:46:29.621Z,79.86
2019-01-24T07:49:02.420Z,79.54
2019-01-24T07:51:35.231Z,79.64
2019-01-24T07:54:07.952Z,79.85
2019-01-24T07:56:40.706Z,80.27
2019-01-24T07:59:13.373Z,79.97
2019-01-24T08:01:47.136Z,79.58
2019-01-24T08:04:19.834Z,78.65
2019-01-24T08:06:52.553Z,78.69
2019-01-24T08:09:25.165Z,78.63
2019-01-24T08:11:57.856Z,78.40
2019-01-24T08:14:30.835Z,77.52
2019-01-24T08:17:03.661Z,77.70
2019-01-24T08:19:36.339Z,77.82
2019-01-24T08:22:08.995Z,76.54
2019-01-24T08:24:41.638Z,76.89
2019-01-24T08:27:14.240Z,77.22
2019-01-24T08:29:46.980Z,77.29
2019-01-24T08:32:19.622Z,78.77
2019-01-24T08:34:52.278Z,78.36
2019-01-24T08:37:26.068Z,78.99
2019-01-24T08:39:58.691Z,78.76
2019-01-24T08:42:31.371Z,79.46
2019-01-24T08:45:04.813Z,79.80
2019-01-24T08:47:37.527Z,80.29
2019-01-24T08:50:14.444Z,80.69
2019-01-24T08:52:47.192Z,81.29
2019-01-24T08:55:29.979Z,80.45
2019-01-24T08:58:02.629Z,80.62
2019-01-24T09:00:35.323Z,80.72
2019-01-24T09:03:08.210Z,79.88
2019-01-24T09:05:40.875Z,78.06
2019-01-24T09:08:13.621Z,76.60
2019-01-24T09:10:46.313Z,76.14
2019-01-24T09:13:18.914Z,75.82
2019-01-24T09:15:51.511Z,76.07
2019-01-24T09:18:24.189Z,76.17
2019-01-24T09:20:56.989Z,75.78
2019-01-24T09:23:29.637Z,73.97
2019-01-24T09:26:02.410Z,74.05
2019-01-24T09:28:35.033Z,75.54
2019-01-24T09:31:07.660Z,75.46
2019-01-24T09:33:40.317Z,76.29
2019-01-24T09:36:13.060Z,75.46
2019-01-24T09:38:45.713Z,77.16
2019-01-24T09:41:18.412Z,75.61
2019-01-24T09:43:51.044Z,77.15
2019-01-24T09:46:23.756Z,77.73
2019-01-24T09:48:56.479Z,77.09
2019-01-24T09:51:29.175Z,75.55
2019-01-24T09:54:01.900Z,76.98
2019-01-24T09:56:34.575Z,76.17
2019-01-24T09:59:07.157Z,75.90
2019-01-24T10:01:40.055Z,75.41
2019-01-24T10:04:12.723Z,75.44
2019-01-24T10:06:45.418Z,73.90
2019-01-24T10:09:18.066Z,73.79
2019-01-24T10:11:50.709Z,71.72
2019-01-24T10:14:23.402Z,72.38
2019-01-24T10:16:56.149Z,73.09
2019-01-24T10:19:28.975Z,72.08
2019-01-24T10:22:01.578Z,71.24
2019-01-24T10:24:34.320Z,72.09
2019-01-24T10:27:07.128Z,70.37
2019-01-24T10:29:39.710Z,73.13
2019-01-24T10:32:12.507Z,74.21
2019-01-24T10:34:45.138Z,73.64
2019-01-24T10:37:17.720Z,74.61
2019-01-24T10:39:50.452Z,74.57
2019-01-24T10:42:23.077Z,73.92
2019-01-24T10:44:55.749Z,74.34
2019-01-24T10:47:28.465Z,73.22
2019-01-24T10:50:01.174Z,74.08
2019-01-24T10:52:33.818Z,73.92
2019-01-24T10:55:13.587Z,74.21
2019-01-24T10:57:42.645Z,73.45
2019-01-24T11:00:20.386Z,73.56
2019-01-24T11:02:53.116Z,73.99
2019-01-24T11:05:25.793Z,74.65
2019-01-24T11:07:58.441Z,73.64
2019-01-24T11:10:31.249Z,73.06
2019-01-24T11:13:03.908Z,72.35
2019-01-24T11:15:36.499Z,74.12
2019-01-24T11:18:09.741Z,75.19
2019-01-24T11:20:42.517Z,76.33
2019-01-24T11:23:15.163Z,76.62
2019-01-24T11:25:47.801Z,77.46
2019-01-24T11:28:20.642Z,77.44
2019-01-24T11:30:53.306Z,77.44
2019-01-24T11:33:25.949Z,78.45
2019-01-24T11:35:58.648Z,78.96
2019-01-24T11:38:31.328Z,78.34
2019-01-24T11:41:04.059Z,78.84
2019-01-24T11:43:36.710Z,79.06
2019-01-24T11:46:09.444Z,79.62
2019-01-24T11:48:42.309Z,78.77
2019-01-24T11:51:15.072Z,79.47
2019-01-24T11:53:53.058Z,79.73
2019-01-24T11:56:22.105Z,77.99
2019-01-24T11:58:54.808Z,78.27
2019-01-24T12:01:27.528Z,78.26
2019-01-24T12:04:00.222Z,78.13
2019-01-24T12:06:32.947Z,78.32
2019-01-24T12:09:08.386Z,79.45
2019-01-24T12:11:41.067Z,79.02
2019-01-24T12:14:13.893Z,78.97
2019-01-24T12:16:46.573Z,79.33
2019-01-24T12:19:19.170Z,79.57
2019-01-24T12:21:51.863Z,80.29
2019-01-24T12:24:24.434Z,78.56
2019-01-24T12:26:57.126Z,77.89
2019-01-24T12:29:29.882Z,78.38
2019-01-24T12:32:02.542Z,78.87
2019-01-24T12:34:36.372Z,78.62
2019-01-24T12:37:11.381Z,78.51
2019-01-24T12:39:43.380Z,78.49
2019-01-24T12:42:16.090Z,78.16
2019-01-24T12:44:49.681Z,77.76
2019-01-24T12:47:22.318Z,78.54
2019-01-24T12:49:54.959Z,76.91
2019-01-24T12:52:27.615Z,75.80
2019-01-24T12:55:00.314Z,75.83
2019-01-24T12:57:32.961Z,76.45
2019-01-24T13:00:09.051Z,76.47
2019-01-24T13:02:41.760Z,75.77
2019-01-24T13:05:14.562Z,77.01
2019-01-24T13:07:47.426Z,76.98
2019-01-24T13:10:25.984Z,77.76
2019-01-24T13:12:58.622Z,77.20
2019-01-24T13:15:33.010Z,77.01
2019-01-24T13:18:06.231Z,77.32
2019-01-24T13:20:38.800Z,77.92
2019-01-24T13:23:11.485Z,78.52
2019-01-24T13:25:44.113Z,78.90
2019-01-24T13:28:16.739Z,78.66
2019-01-24T13:30:49.535Z,79.17
2019-01-24T13:33:22.382Z,77.96
2019-01-24T13:35:54.970Z,79.07
2019-01-24T13:38:27.731Z,78.80
2019-01-24T13:41:00.498Z,78.68
2019-01-24T13:43:33.297Z,79.51
2019-01-24T13:46:06.625Z,79.35
2019-01-24T13:48:39.301Z,78.46
2019-01-24T13:51:11.962Z,78.76
2019-01-24T13:53:44.606Z,78.81
2019-01-24T13:56:17.202Z,78.28
2019-01-24T13:58:49.970Z,76.77
2019-01-24T14:01:22.557Z,76.69
2019-01-24T14:04:15.616Z,76.67
2019-01-24T14:06:48.295Z,76.22
2019-01-24T14:09:21.034Z,77.01
2019-01-24T14:11:53.623Z,76.57
2019-01-24T14:14:26.422Z,76.92
2019-01-24T14:16:59.109Z,76.83
2019-01-24T14:19:31.956Z,77.63
2019-01-24T14:22:05.165Z,77.21
2019-01-24T14:24:37.152Z,77.65
2019-01-24T14:27:09.451Z,78.11
2019-01-24T14:29:42.158Z,77.58
2019-01-24T14:32:14.901Z,78.12
2019-01-24T14:34:48.324Z,78.20
2019-01-24T14:37:21.059Z,77.92
2019-01-24T14:39:53.940Z,77.34
2019-01-24T14:42:26.529Z,77.31
2019-01-24T14:44:59.235Z,76.98
2019-01-24T14:47:31.932Z,76.40
2019-01-24T14:50:05.281Z,76.28
2019-01-24T14:52:37.909Z,75.89
2019-01-24T14:55:12.271Z,75.94
2019-01-24T14:57:45.253Z,76.30
2019-01-24T15:00:31.225Z,76.62
2019-01-24T15:03:03.996Z,76.52
2019-01-24T15:05:36.965Z,75.39
2019-01-24T15:08:09.940Z,76.45
2019-01-24T15:10:42.643Z,76.70
2019-01-24T15:13:15.309Z,76.97
2019-01-24T15:15:48.075Z,74.94
2019-01-24T15:18:20.669Z,76.09
2019-01-24T15:20:53.259Z,75.83
2019-01-24T15:23:26.085Z,75.69
2019-01-24T15:25:58.648Z,76.27
2019-01-24T15:28:31.362Z,75.69
2019-01-24T15:31:04.188Z,75.33
2019-01-24T15:33:36.970Z,74.61
2019-01-24T15:36:09.851Z,74.09
2019-01-24T15:38:42.596Z,74.89
2019-01-24T15:41:15.285Z,75.72
2019-01-24T15:43:47.898Z,75.61
2019-01-24T15:46:20.567Z,75.13
2019-01-24T15:48:53.270Z,76.16
2019-01-24T15:51:25.936Z,74.98
2019-01-24T15:53:58.799Z,75.49
2019-01-24T15:56:31.578Z,74.68
2019-01-24T15:59:04.152Z,75.16
2019-01-24T16:01:36.949Z,75.78
2019-01-24T16:04:09.717Z,75.21
2019-01-24T16:06:42.500Z,74.78
2019-01-24T16:09:15.219Z,75.66
2019-01-24T16:11:47.814Z,75.65
2019-01-24T16:14:20.527Z,74.20
2019-01-24T16:16:53.167Z,74.04
2019-01-24T16:19:25.909Z,74.65
2019-01-24T16:21:58.596Z,75.21
2019-01-24T16:24:31.212Z,75.04
2019-01-24T16:27:03.838Z,75.51
2019-01-24T16:29:36.564Z,75.87
2019-01-24T16:32:09.787Z,75.65
2019-01-24T16:34:42.499Z,76.52
2019-01-24T16:37:15.253Z,75.88
2019-01-24T16:39:47.889Z,76.29
2019-01-24T16:42:20.613Z,76.15
2019-01-24T16:44:53.180Z,76.41
2019-01-24T16:47:25.802Z,76.21
2019-01-24T16:49:58.504Z,75.68
2019-01-24T16:52:33.136Z,75.38
2019-01-24T16:55:07.607Z,75.63
2019-01-24T16:57:40.205Z,75.62
2019-01-24T17:00:19.099Z,75.91
2019-01-24T17:02:51.762Z,76.27
2019-01-24T17:05:24.455Z,76.31
2019-01-24T17:07:57.613Z,75.79
2019-01-24T17:10:30.980Z,75.73
2019-01-24T17:13:03.618Z,75.23
2019-01-24T17:15:36.262Z,74.00
2019-01-24T17:18:09.646Z,74.52
2019-01-24T17:20:42.497Z,72.84
2019-01-24T17:23:15.089Z,72.84
2019-01-24T17:25:47.776Z,72.96
2019-01-24T17:28:20.412Z,73.11
2019-01-24T17:30:53.059Z,73.10
2019-01-24T17:33:25.650Z,72.87
2019-01-24T17:35:58.243Z,73.05
2019-01-24T17:38:30.909Z,71.92
2019-01-24T17:41:03.565Z,72.35
2019-01-24T17:43:36.244Z,72.21
2019-01-24T17:46:09.410Z,73.08
2019-01-24T17:48:42.143Z,71.35
2019-01-24T17:51:15.664Z,71.21
2019-01-24T17:53:48.470Z,71.34
2019-01-24T17:56:21.150Z,71.69
2019-01-24T17:58:53.946Z,70.81
2019-01-24T18:01:26.843Z,71.64
2019-01-24T18:03:59.467Z,70.03
2019-01-24T18:06:32.290Z,71.54
2019-01-24T18:09:07.872Z,71.68
2019-01-24T18:11:40.619Z,71.28
2019-01-24T18:14:13.520Z,69.88
2019-01-24T18:16:46.356Z,71.56
2019-01-24T18:19:19.026Z,71.13
2019-01-24T18:21:51.784Z,71.47
2019-01-24T18:24:24.346Z,71.65
2019-01-24T18:26:57.155Z,70.85
2019-01-24T18:29:29.787Z,71.20
2019-01-24T18:32:02.569Z,71.51
2019-01-24T18:34:35.298Z,72.30
2019-01-24T18:37:08.060Z,72.04
2019-01-24T18:39:40.753Z,72.61
2019-01-24T18:42:13.781Z,71.99
2019-01-24T18:44:46.527Z,71.12
2019-01-24T18:47:19.320Z,71.85
2019-01-24T18:49:52.055Z,72.05
2019-01-24T18:52:24.769Z,71.54
2019-01-24T18:54:57.578Z,72.96
2019-01-24T18:57:30.296Z,71.35
2019-01-24T19:00:03.294Z,72.70
2019-01-24T19:02:36.033Z,72.99
2019-01-24T19:05:10.625Z,72.79
2019-01-24T19:07:43.414Z,71.77
2019-01-24T19:10:16.646Z,73.61
2019-01-24T19:12:49.729Z,71.81
2019-01-24T19:15:22.616Z,72.79
2019-01-24T19:17:55.635Z,73.16
2019-01-24T19:20:28.222Z,72.86
2019-01-24T19:23:01.024Z,72.71
2019-01-24T19:25:33.638Z,71.82
2019-01-24T19:28:08.590Z,71.26
2019-01-24T19:30:41.181Z,72.41
2019-01-24T19:33:13.964Z,72.75
2019-01-24T19:35:46.522Z,72.45
2019-01-24T19:38:19.367Z,73.07
2019-01-24T19:40:52.013Z,71.94
2019-01-24T19:43:25.108Z,72.91
2019-01-24T19:45:57.790Z,72.62
2019-01-24T19:48:30.416Z,73.74
2019-01-24T19:51:04.633Z,72.81
2019-01-24T19:53:37.454Z,73.12
2019-01-24T19:56:10.319Z,72.95
2019-01-24T19:58:43.143Z,72.74
2019-01-24T20:01:15.857Z,73.43
2019-01-24T20:03:48.505Z,72.22
2019-01-24T20:06:21.155Z,73.49
2019-01-24T20:08:59.974Z,72.41
2019-01-24T20:11:28.317Z,72.20
2019-01-24T20:14:01.090Z,72.43
2019-01-24T20:16:33.731Z,72.05
2019-01-24T20:19:06.889Z,72.97
2019-01-24T20:21:39.581Z,71.83
2019-01-24T20:24:12.576Z,71.73
2019-01-24T20:26:45.283Z,72.32
2019-01-24T20:29:19.439Z,72.59
2019-01-24T20:31:52.321Z,72.37
2019-01-24T20:34:25.035Z,72.31
2019-01-24T20:36:57.728Z,72.52
2019-01-24T20:39:30.356Z,72.20
2019-01-24T20:42:05.945Z,72.14
2019-01-24T20:44:38.588Z,72.47
2019-01-24T20:47:11.342Z,72.77
2019-01-24T20:49:44.179Z,72.49
2019-01-24T20:52:16.892Z,72.64
2019-01-24T20:54:49.517Z,72.93
2019-01-24T20:57:22.180Z,73.45
2019-01-24T20:59:54.800Z,73.09
2019-01-24T21:02:27.553Z,73.14
2019-01-24T21:05:00.204Z,73.51
2019-01-24T21:07:32.997Z,73.00
2019-01-24T21:10:07.644Z,73.09
2019-01-24T21:12:40.332Z,73.88
2019-01-24T21:15:14.943Z,73.55
2019-01-24T21:17:47.750Z,73.87
2019-01-24T21:20:25.896Z,73.66
2019-01-24T21:22:58.739Z,73.62
2019-01-24T21:25:31.435Z,73.58
2019-01-24T21:28:04.318Z,72.28
2019-01-24T21:30:39.294Z,72.77
2019-01-24T21:33:11.971Z,73.32
2019-01-24T21:35:44.611Z,72.95
2019-01-24T21:38:17.265Z,72.40
2019-01-24T21:40:49.937Z,72.74
2019-01-24T21:43:22.600Z,73.08
2019-01-24T21:45:55.318Z,73.96
2019-01-24T21:48:28.020Z,73.57
2019-01-24T21:51:00.965Z,72.99
2019-01-24T21:53:33.640Z,72.92
2019-01-24T21:56:09.388Z,73.78
2019-01-24T21:58:42.100Z,73.22
2019-01-24T22:01:14.443Z,72.83
2019-01-24T22:03:47.074Z,72.96
2019-01-24T22:06:19.739Z,72.36
2019-01-24T22:08:52.419Z,73.75
2019-01-24T22:11:25.102Z,72.87
2019-01-24T22:13:57.833Z,72.31
2019-01-24T22:16:30.405Z,73.54
2019-01-24T22:19:03.118Z,73.43
2019-01-24T22:21:35.716Z,73.87
2019-01-24T22:24:08.652Z,75.06
2019-01-24T22:26:41.357Z,74.76
2019-01-24T22:29:14.051Z,75.29
2019-01-24T22:31:46.833Z,75.66
2019-01-24T22:34:22.558Z,75.12
2019-01-24T22:36:55.311Z,75.53
2019-01-24T22:39:28.020Z,75.11
2019-01-24T22:42:00.702Z,75.65
2019-01-24T22:44:33.464Z,74.62
2019-01-24T22:47:06.034Z,75.48
2019-01-24T22:49:38.684Z,75.58
2019-01-24T22:52:11.465Z,75.06
2019-01-24T22:54:44.098Z,75.00
2019-01-24T22:57:16.780Z,74.86
2019-01-24T22:59:49.478Z,74.84
2019-01-24T23:02:29.991Z,74.51
2019-01-24T23:05:02.683Z,74.41
2019-01-24T23:07:34.801Z,74.47
2019-01-24T23:10:10.119Z,73.98
2019-01-24T23:12:42.827Z,74.69
2019-01-24T23:15:16.034Z,73.35
2019-01-24T23:17:48.754Z,73.34
2019-01-24T23:20:21.380Z,73.75
2019-01-24T23:22:54.328Z,74.09
2019-01-24T23:25:27.031Z,72.45
2019-01-24T23:27:59.756Z,72.61
2019-01-24T23:30:32.476Z,72.23
2019-01-24T23:33:05.577Z,73.29
2019-01-24T23:35:38.269Z,73.60
2019-01-24T23:38:11.116Z,72.82
2019-01-24T23:40:43.748Z,73.01
2019-01-24T23:43:16.365Z,72.86
2019-01-24T23:45:49.080Z,73.03
2019-01-24T23:48:21.770Z,73.74
2019-01-24T23:50:54.397Z,72.20
2019-01-24T23:53:27.097Z,73.54
2019-01-24T23:55:59.717Z,74.15
2019-01-24T23:58:32.409Z,73.28
